sensor_id;sensor_type;location;lat;lon;timestamp;P1;durP1;ratioP1;P2;durP2;ratioP2
31526;SDS011;18136;42.236;-73.040;2023-04-06T00:02:23;22.27;;;5.90;;
31526;SDS011;18136;42.236;-73.040;2023-04-06T00:04:49;16.73;;;5.88;;
31526;SDS011;18136;42.236;-73.040;2023-04-06T00:07:15;15.05;;;5.55;;
31526;SDS011;18136;42.236;-73.040;2023-04-06T00:09:42;18.35;;;6.25;;
31526;SDS011;18136;42.236;-73.040;2023-04-06T00:12:08;22.67;;;5.38;;
31526;SDS011;18136;42.236;-73.040;2023-04-06T00:14:35;21.33;;;6.18;;
31526;SDS011;18136;42.236;-73.040;2023-04-06T00:17:01;15.32;;;5.45;;
31526;SDS011;18136;42.236;-73.040;2023-04-06T00:19:29;13.82;;;4.80;;
31526;SDS011;18136;42.236;-73.040;2023-04-06T00:21:55;20.55;;;5.78;;
31526;SDS011;18136;42.236;-73.040;2023-04-06T00:24:21;18.23;;;6.18;;
31526;SDS011;18136;42.236;-73.040;2023-04-06T00:26:47;14.35;;;5.55;;
31526;SDS011;18136;42.236;-73.040;2023-04-06T00:29:14;15.05;;;5.18;;
31526;SDS011;18136;42.236;-73.040;2023-04-06T00:31:40;35.40;;;5.63;;
31526;SDS011;18136;42.236;-73.040;2023-04-06T00:34:06;13.07;;;4.82;;
31526;SDS011;18136;42.236;-73.040;2023-04-06T00:36:32;14.43;;;5.40;;
31526;SDS011;18136;42.236;-73.040;2023-04-06T00:38:59;16.63;;;5.45;;
31526;SDS011;18136;42.236;-73.040;2023-04-06T00:41:25;14.80;;;4.93;;
31526;SDS011;18136;42.236;-73.040;2023-04-06T00:43:51;13.10;;;5.03;;
31526;SDS011;18136;42.236;-73.040;2023-04-06T00:46:19;10.05;;;4.72;;
31526;SDS011;18136;42.236;-73.040;2023-04-06T00:48:45;13.77;;;4.43;;
31526;SDS011;18136;42.236;-73.040;2023-04-06T00:51:11;8.75;;;3.88;;
31526;SDS011;18136;42.236;-73.040;2023-04-06T00:53:37;7.57;;;3.50;;
31526;SDS011;18136;42.236;-73.040;2023-04-06T00:56:05;13.50;;;4.20;;
31526;SDS011;18136;42.236;-73.040;2023-04-06T00:58:31;11.80;;;4.25;;
31526;SDS011;18136;42.236;-73.040;2023-04-06T01:00:58;8.93;;;3.67;;
31526;SDS011;18136;42.236;-73.040;2023-04-06T01:03:24;7.47;;;3.70;;
31526;SDS011;18136;42.236;-73.040;2023-04-06T01:05:51;5.93;;;3.60;;
31526;SDS011;18136;42.236;-73.040;2023-04-06T01:08:20;10.40;;;4.03;;
31526;SDS011;18136;42.236;-73.040;2023-04-06T01:10:47;4.53;;;2.65;;
31526;SDS011;18136;42.236;-73.040;2023-04-06T01:13:13;5.57;;;2.72;;
31526;SDS011;18136;42.236;-73.040;2023-04-06T01:15:39;5.82;;;2.60;;
31526;SDS011;18136;42.236;-73.040;2023-04-06T01:18:07;5.47;;;2.50;;
31526;SDS011;18136;42.236;-73.040;2023-04-06T01:20:35;6.75;;;2.42;;
31526;SDS011;18136;42.236;-73.040;2023-04-06T01:23:02;3.63;;;2.33;;
31526;SDS011;18136;42.236;-73.040;2023-04-06T01:25:28;3.97;;;2.40;;
31526;SDS011;18136;42.236;-73.040;2023-04-06T01:27:54;4.20;;;2.03;;
31526;SDS011;18136;42.236;-73.040;2023-04-06T01:30:20;3.20;;;1.88;;
31526;SDS011;18136;42.236;-73.040;2023-04-06T01:32:46;3.25;;;2.50;;
31526;SDS011;18136;42.236;-73.040;2023-04-06T01:35:12;2.00;;;1.60;;
31526;SDS011;18136;42.236;-73.040;2023-04-06T01:37:39;4.70;;;2.20;;
31526;SDS011;18136;42.236;-73.040;2023-04-06T01:40:05;3.97;;;1.80;;
31526;SDS011;18136;42.236;-73.040;2023-04-06T01:42:32;6.57;;;1.92;;
31526;SDS011;18136;42.236;-73.040;2023-04-06T01:44:58;2.47;;;1.75;;
31526;SDS011;18136;42.236;-73.040;2023-04-06T01:47:24;2.15;;;1.50;;
31526;SDS011;18136;42.236;-73.040;2023-04-06T01:49:50;16.27;;;2.25;;
31526;SDS011;18136;42.236;-73.040;2023-04-06T01:52:16;2.47;;;1.88;;
31526;SDS011;18136;42.236;-73.040;2023-04-06T01:54:42;1.00;;;0.90;;
31526;SDS011;18136;42.236;-73.040;2023-04-06T01:57:09;2.00;;;1.42;;
31526;SDS011;18136;42.236;-73.040;2023-04-06T01:59:36;1.70;;;1.27;;
31526;SDS011;18136;42.236;-73.040;2023-04-06T02:02:02;1.55;;;1.30;;
31526;SDS011;18136;42.236;-73.040;2023-04-06T02:04:28;3.75;;;1.45;;
31526;SDS011;18136;42.236;-73.040;2023-04-06T02:06:54;1.88;;;1.33;;
31526;SDS011;18136;42.236;-73.040;2023-04-06T02:09:20;1.95;;;1.45;;
31526;SDS011;18136;42.236;-73.040;2023-04-06T02:11:46;4.10;;;1.40;;
31526;SDS011;18136;42.236;-73.040;2023-04-06T02:14:15;1.30;;;1.20;;
31526;SDS011;18136;42.236;-73.040;2023-04-06T02:16:41;1.67;;;1.50;;
31526;SDS011;18136;42.236;-73.040;2023-04-06T02:19:07;1.60;;;1.40;;
31526;SDS011;18136;42.236;-73.040;2023-04-06T02:21:33;1.67;;;1.23;;
31526;SDS011;18136;42.236;-73.040;2023-04-06T02:23:59;2.25;;;1.00;;
31526;SDS011;18136;42.236;-73.040;2023-04-06T02:26:25;2.42;;;1.35;;
31526;SDS011;18136;42.236;-73.040;2023-04-06T02:28:51;5.10;;;1.45;;
31526;SDS011;18136;42.236;-73.040;2023-04-06T02:31:17;2.00;;;1.25;;
31526;SDS011;18136;42.236;-73.040;2023-04-06T02:33:43;1.35;;;0.95;;
31526;SDS011;18136;42.236;-73.040;2023-04-06T02:36:09;8.00;;;1.38;;
31526;SDS011;18136;42.236;-73.040;2023-04-06T02:38:35;2.03;;;1.20;;
31526;SDS011;18136;42.236;-73.040;2023-04-06T02:41:05;1.70;;;1.00;;
31526;SDS011;18136;42.236;-73.040;2023-04-06T02:43:32;9.07;;;1.48;;
31526;SDS011;18136;42.236;-73.040;2023-04-06T02:45:58;1.02;;;0.95;;
31526;SDS011;18136;42.236;-73.040;2023-04-06T02:48:24;10.55;;;1.50;;
31526;SDS011;18136;42.236;-73.040;2023-04-06T02:50:50;2.75;;;1.10;;
31526;SDS011;18136;42.236;-73.040;2023-04-06T02:53:16;63.80;;;3.35;;
31526;SDS011;18136;42.236;-73.040;2023-04-06T02:55:43;2.13;;;1.02;;
31526;SDS011;18136;42.236;-73.040;2023-04-06T02:58:09;0.90;;;0.90;;
31526;SDS011;18136;42.236;-73.040;2023-04-06T03:00:35;12.88;;;1.70;;
31526;SDS011;18136;42.236;-73.040;2023-04-06T03:03:02;2.25;;;1.08;;
31526;SDS011;18136;42.236;-73.040;2023-04-06T03:05:28;5.45;;;1.30;;
31526;SDS011;18136;42.236;-73.040;2023-04-06T03:07:54;1.75;;;1.10;;
31526;SDS011;18136;42.236;-73.040;2023-04-06T03:10:20;1.15;;;1.10;;
31526;SDS011;18136;42.236;-73.040;2023-04-06T03:12:46;7.90;;;1.70;;
31526;SDS011;18136;42.236;-73.040;2023-04-06T03:15:12;39.10;;;2.70;;
31526;SDS011;18136;42.236;-73.040;2023-04-06T03:17:38;6.53;;;1.13;;
31526;SDS011;18136;42.236;-73.040;2023-04-06T03:20:05;11.95;;;1.77;;
31526;SDS011;18136;42.236;-73.040;2023-04-06T03:22:31;2.80;;;1.20;;
31526;SDS011;18136;42.236;-73.040;2023-04-06T03:24:57;19.98;;;1.42;;
31526;SDS011;18136;42.236;-73.040;2023-04-06T03:27:23;1.60;;;1.50;;
31526;SDS011;18136;42.236;-73.040;2023-04-06T03:29:49;2.63;;;1.40;;
31526;SDS011;18136;42.236;-73.040;2023-04-06T03:32:15;4.95;;;1.55;;
31526;SDS011;18136;42.236;-73.040;2023-04-06T03:34:42;68.35;;;2.92;;
31526;SDS011;18136;42.236;-73.040;2023-04-06T03:37:08;17.55;;;1.40;;
31526;SDS011;18136;42.236;-73.040;2023-04-06T03:39:34;1.20;;;1.10;;
31526;SDS011;18136;42.236;-73.040;2023-04-06T03:42:00;20.10;;;1.33;;
31526;SDS011;18136;42.236;-73.040;2023-04-06T03:44:26;0.90;;;0.80;;
31526;SDS011;18136;42.236;-73.040;2023-04-06T03:46:52;0.77;;;0.77;;
31526;SDS011;18136;42.236;-73.040;2023-04-06T03:49:19;1.40;;;0.88;;
31526;SDS011;18136;42.236;-73.040;2023-04-06T03:51:45;4.75;;;1.05;;
31526;SDS011;18136;42.236;-73.040;2023-04-06T03:54:11;24.15;;;1.70;;
31526;SDS011;18136;42.236;-73.040;2023-04-06T03:56:37;2.80;;;1.00;;
31526;SDS011;18136;42.236;-73.040;2023-04-06T03:59:03;1.63;;;1.10;;
31526;SDS011;18136;42.236;-73.040;2023-04-06T04:01:29;3.42;;;1.40;;
31526;SDS011;18136;42.236;-73.040;2023-04-06T04:03:55;3.63;;;1.42;;
31526;SDS011;18136;42.236;-73.040;2023-04-06T04:06:22;23.20;;;1.77;;
31526;SDS011;18136;42.236;-73.040;2023-04-06T04:08:48;14.15;;;1.05;;
31526;SDS011;18136;42.236;-73.040;2023-04-06T04:11:17;0.80;;;0.80;;
31526;SDS011;18136;42.236;-73.040;2023-04-06T04:13:46;54.90;;;2.53;;
31526;SDS011;18136;42.236;-73.040;2023-04-06T04:16:12;19.15;;;1.30;;
31526;SDS011;18136;42.236;-73.040;2023-04-06T04:18:38;43.72;;;2.60;;
31526;SDS011;18136;42.236;-73.040;2023-04-06T04:21:04;6.88;;;1.00;;
31526;SDS011;18136;42.236;-73.040;2023-04-06T04:23:30;5.72;;;1.05;;
31526;SDS011;18136;42.236;-73.040;2023-04-06T04:25:57;3.90;;;0.90;;
31526;SDS011;18136;42.236;-73.040;2023-04-06T04:28:23;113.28;;;3.97;;
31526;SDS011;18136;42.236;-73.040;2023-04-06T04:30:49;10.77;;;1.08;;
31526;SDS011;18136;42.236;-73.040;2023-04-06T04:33:15;3.15;;;1.08;;
31526;SDS011;18136;42.236;-73.040;2023-04-06T04:35:41;5.97;;;1.00;;
31526;SDS011;18136;42.236;-73.040;2023-04-06T04:38:07;10.48;;;1.33;;
31526;SDS011;18136;42.236;-73.040;2023-04-06T04:40:33;8.70;;;1.27;;
31526;SDS011;18136;42.236;-73.040;2023-04-06T04:42:59;2.35;;;0.90;;
31526;SDS011;18136;42.236;-73.040;2023-04-06T04:45:25;1.85;;;0.90;;
31526;SDS011;18136;42.236;-73.040;2023-04-06T04:47:51;12.82;;;1.55;;
31526;SDS011;18136;42.236;-73.040;2023-04-06T04:50:20;0.90;;;0.90;;
31526;SDS011;18136;42.236;-73.040;2023-04-06T04:52:49;1.23;;;1.13;;
31526;SDS011;18136;42.236;-73.040;2023-04-06T04:55:15;2.13;;;1.00;;
31526;SDS011;18136;42.236;-73.040;2023-04-06T04:57:42;25.70;;;1.90;;
31526;SDS011;18136;42.236;-73.040;2023-04-06T05:00:09;12.27;;;1.52;;
31526;SDS011;18136;42.236;-73.040;2023-04-06T05:02:35;18.42;;;1.88;;
31526;SDS011;18136;42.236;-73.040;2023-04-06T05:05:01;3.33;;;1.55;;
31526;SDS011;18136;42.236;-73.040;2023-04-06T05:07:27;23.15;;;1.90;;
31526;SDS011;18136;42.236;-73.040;2023-04-06T05:09:53;3.90;;;1.58;;
31526;SDS011;18136;42.236;-73.040;2023-04-06T05:12:19;2.65;;;1.25;;
31526;SDS011;18136;42.236;-73.040;2023-04-06T05:14:46;5.38;;;1.10;;
31526;SDS011;18136;42.236;-73.040;2023-04-06T05:17:12;11.80;;;1.60;;
31526;SDS011;18136;42.236;-73.040;2023-04-06T05:19:38;55.25;;;2.63;;
31526;SDS011;18136;42.236;-73.040;2023-04-06T05:22:05;7.15;;;1.50;;
31526;SDS011;18136;42.236;-73.040;2023-04-06T05:24:31;20.80;;;1.80;;
31526;SDS011;18136;42.236;-73.040;2023-04-06T05:26:57;2.95;;;1.70;;
31526;SDS011;18136;42.236;-73.040;2023-04-06T05:29:25;3.03;;;1.20;;
31526;SDS011;18136;42.236;-73.040;2023-04-06T05:31:51;1.00;;;1.00;;
31526;SDS011;18136;42.236;-73.040;2023-04-06T05:34:17;78.47;;;3.10;;
31526;SDS011;18136;42.236;-73.040;2023-04-06T05:36:43;4.03;;;1.20;;
31526;SDS011;18136;42.236;-73.040;2023-04-06T05:39:09;1.30;;;1.20;;
31526;SDS011;18136;42.236;-73.040;2023-04-06T05:41:37;15.40;;;1.20;;
31526;SDS011;18136;42.236;-73.040;2023-04-06T05:44:03;6.13;;;1.20;;
31526;SDS011;18136;42.236;-73.040;2023-04-06T05:46:29;0.80;;;0.80;;
31526;SDS011;18136;42.236;-73.040;2023-04-06T05:48:55;10.90;;;1.90;;
31526;SDS011;18136;42.236;-73.040;2023-04-06T05:51:21;1.20;;;1.10;;
31526;SDS011;18136;42.236;-73.040;2023-04-06T05:53:48;3.75;;;1.20;;
31526;SDS011;18136;42.236;-73.040;2023-04-06T05:56:14;1.10;;;1.00;;
31526;SDS011;18136;42.236;-73.040;2023-04-06T05:58:40;22.52;;;2.05;;
31526;SDS011;18136;42.236;-73.040;2023-04-06T06:01:06;6.00;;;1.40;;
31526;SDS011;18136;42.236;-73.040;2023-04-06T06:03:34;7.07;;;1.38;;
31526;SDS011;18136;42.236;-73.040;2023-04-06T06:06:03;5.18;;;1.40;;
31526;SDS011;18136;42.236;-73.040;2023-04-06T06:08:30;13.05;;;1.80;;
31526;SDS011;18136;42.236;-73.040;2023-04-06T06:10:56;3.05;;;1.83;;
31526;SDS011;18136;42.236;-73.040;2023-04-06T06:13:23;4.85;;;1.08;;
31526;SDS011;18136;42.236;-73.040;2023-04-06T06:15:49;16.02;;;2.05;;
31526;SDS011;18136;42.236;-73.040;2023-04-06T06:28:29;3.13;;;1.40;;
31526;SDS011;18136;42.236;-73.040;2023-04-06T06:30:56;4.80;;;1.15;;
31526;SDS011;18136;42.236;-73.040;2023-04-06T06:33:23;12.30;;;1.48;;
31526;SDS011;18136;42.236;-73.040;2023-04-06T06:35:51;2.35;;;1.02;;
31526;SDS011;18136;42.236;-73.040;2023-04-06T06:38:17;1.17;;;1.10;;
31526;SDS011;18136;42.236;-73.040;2023-04-06T06:40:44;6.28;;;1.40;;
31526;SDS011;18136;42.236;-73.040;2023-04-06T06:43:11;1.20;;;1.10;;
31526;SDS011;18136;42.236;-73.040;2023-04-06T06:45:37;1.67;;;1.08;;
31526;SDS011;18136;42.236;-73.040;2023-04-06T06:48:03;1.27;;;0.90;;
31526;SDS011;18136;42.236;-73.040;2023-04-06T06:50:29;1.30;;;1.20;;
31526;SDS011;18136;42.236;-73.040;2023-04-06T06:52:56;2.13;;;1.20;;
31526;SDS011;18136;42.236;-73.040;2023-04-06T06:55:22;1.40;;;1.30;;
31526;SDS011;18136;42.236;-73.040;2023-04-06T06:57:48;1.20;;;1.10;;
31526;SDS011;18136;42.236;-73.040;2023-04-06T07:00:14;2.95;;;1.17;;
31526;SDS011;18136;42.236;-73.040;2023-04-06T07:02:40;2.20;;;1.00;;
31526;SDS011;18136;42.236;-73.040;2023-04-06T07:05:06;2.75;;;1.30;;
31526;SDS011;18136;42.236;-73.040;2023-04-06T07:07:33;2.25;;;1.65;;
31526;SDS011;18136;42.236;-73.040;2023-04-06T07:09:59;1.50;;;1.40;;
31526;SDS011;18136;42.236;-73.040;2023-04-06T07:12:26;1.25;;;1.00;;
31526;SDS011;18136;42.236;-73.040;2023-04-06T07:14:52;4.40;;;1.50;;
31526;SDS011;18136;42.236;-73.040;2023-04-06T07:17:18;1.30;;;1.20;;
31526;SDS011;18136;42.236;-73.040;2023-04-06T07:19:44;26.58;;;2.10;;
31526;SDS011;18136;42.236;-73.040;2023-04-06T07:22:13;17.20;;;1.90;;
31526;SDS011;18136;42.236;-73.040;2023-04-06T07:24:39;6.47;;;2.00;;
31526;SDS011;18136;42.236;-73.040;2023-04-06T07:27:05;2.88;;;2.28;;
31526;SDS011;18136;42.236;-73.040;2023-04-06T07:29:32;4.88;;;2.35;;
31526;SDS011;18136;42.236;-73.040;2023-04-06T07:31:58;9.00;;;1.85;;
31526;SDS011;18136;42.236;-73.040;2023-04-06T07:34:24;2.75;;;1.88;;
31526;SDS011;18136;42.236;-73.040;2023-04-06T07:36:50;7.40;;;1.92;;
31526;SDS011;18136;42.236;-73.040;2023-04-06T07:39:18;7.57;;;2.13;;
31526;SDS011;18136;42.236;-73.040;2023-04-06T07:41:45;10.75;;;2.20;;
31526;SDS011;18136;42.236;-73.040;2023-04-06T07:44:11;17.40;;;2.42;;
31526;SDS011;18136;42.236;-73.040;2023-04-06T07:46:37;7.40;;;2.47;;
31526;SDS011;18136;42.236;-73.040;2023-04-06T07:49:03;8.18;;;2.13;;
31526;SDS011;18136;42.236;-73.040;2023-04-06T07:51:29;6.45;;;2.20;;
31526;SDS011;18136;42.236;-73.040;2023-04-06T07:53:56;2.45;;;1.98;;
31526;SDS011;18136;42.236;-73.040;2023-04-06T07:56:22;14.65;;;2.25;;
31526;SDS011;18136;42.236;-73.040;2023-04-06T07:58:48;18.70;;;2.15;;
31526;SDS011;18136;42.236;-73.040;2023-04-06T08:01:14;7.05;;;1.83;;
31526;SDS011;18136;42.236;-73.040;2023-04-06T08:03:40;4.57;;;2.17;;
31526;SDS011;18136;42.236;-73.040;2023-04-06T08:06:06;5.18;;;1.92;;
31526;SDS011;18136;42.236;-73.040;2023-04-06T08:08:33;6.18;;;2.30;;
31526;SDS011;18136;42.236;-73.040;2023-04-06T08:10:59;10.43;;;2.35;;
31526;SDS011;18136;42.236;-73.040;2023-04-06T08:13:25;27.48;;;2.78;;
31526;SDS011;18136;42.236;-73.040;2023-04-06T08:15:51;3.08;;;2.00;;
31526;SDS011;18136;42.236;-73.040;2023-04-06T08:18:18;7.22;;;2.10;;
31526;SDS011;18136;42.236;-73.040;2023-04-06T08:20:44;27.77;;;2.53;;
31526;SDS011;18136;42.236;-73.040;2023-04-06T08:23:10;23.90;;;2.40;;
31526;SDS011;18136;42.236;-73.040;2023-04-06T08:25:37;4.85;;;2.53;;
31526;SDS011;18136;42.236;-73.040;2023-04-06T08:28:03;2.80;;;2.40;;
31526;SDS011;18136;42.236;-73.040;2023-04-06T08:30:29;7.75;;;2.15;;
31526;SDS011;18136;42.236;-73.040;2023-04-06T08:32:56;9.93;;;2.35;;
31526;SDS011;18136;42.236;-73.040;2023-04-06T08:35:22;7.45;;;2.33;;
31526;SDS011;18136;42.236;-73.040;2023-04-06T08:37:48;16.95;;;2.78;;
31526;SDS011;18136;42.236;-73.040;2023-04-06T08:40:14;24.75;;;2.55;;
31526;SDS011;18136;42.236;-73.040;2023-04-06T08:42:40;5.15;;;2.67;;
31526;SDS011;18136;42.236;-73.040;2023-04-06T08:45:15;6.43;;;2.70;;
31526;SDS011;18136;42.236;-73.040;2023-04-06T08:47:43;3.20;;;2.60;;
31526;SDS011;18136;42.236;-73.040;2023-04-06T08:50:09;4.95;;;2.80;;
31526;SDS011;18136;42.236;-73.040;2023-04-06T08:52:39;3.50;;;2.47;;
31526;SDS011;18136;42.236;-73.040;2023-04-06T08:55:08;3.50;;;2.58;;
31526;SDS011;18136;42.236;-73.040;2023-04-06T08:57:35;19.17;;;2.72;;
31526;SDS011;18136;42.236;-73.040;2023-04-06T09:00:02;20.13;;;3.35;;
31526;SDS011;18136;42.236;-73.040;2023-04-06T09:02:28;27.23;;;2.72;;
31526;SDS011;18136;42.236;-73.040;2023-04-06T09:04:54;57.03;;;3.53;;
31526;SDS011;18136;42.236;-73.040;2023-04-06T09:07:21;20.25;;;3.08;;
31526;SDS011;18136;42.236;-73.040;2023-04-06T09:09:47;11.73;;;2.65;;
31526;SDS011;18136;42.236;-73.040;2023-04-06T09:12:26;14.30;;;2.95;;
31526;SDS011;18136;42.236;-73.040;2023-04-06T09:14:53;2.88;;;2.35;;
31526;SDS011;18136;42.236;-73.040;2023-04-06T09:17:21;4.10;;;2.50;;
31526;SDS011;18136;42.236;-73.040;2023-04-06T09:19:48;2.65;;;2.45;;
31526;SDS011;18136;42.236;-73.040;2023-04-06T09:22:15;3.08;;;2.20;;
31526;SDS011;18136;42.236;-73.040;2023-04-06T09:24:45;4.00;;;3.03;;
31526;SDS011;18136;42.236;-73.040;2023-04-06T09:27:13;13.05;;;3.50;;
31526;SDS011;18136;42.236;-73.040;2023-04-06T09:29:40;10.27;;;3.63;;
31526;SDS011;18136;42.236;-73.040;2023-04-06T09:32:07;9.75;;;2.70;;
31526;SDS011;18136;42.236;-73.040;2023-04-06T09:34:41;19.73;;;3.22;;
31526;SDS011;18136;42.236;-73.040;2023-04-06T09:37:17;2.83;;;2.50;;
31526;SDS011;18136;42.236;-73.040;2023-04-06T09:39:44;3.70;;;3.00;;
31526;SDS011;18136;42.236;-73.040;2023-04-06T09:42:22;3.60;;;2.60;;
31526;SDS011;18136;42.236;-73.040;2023-04-06T09:44:50;7.68;;;3.10;;
31526;SDS011;18136;42.236;-73.040;2023-04-06T09:47:16;4.28;;;3.45;;
31526;SDS011;18136;42.236;-73.040;2023-04-06T09:49:43;5.97;;;3.17;;
31526;SDS011;18136;42.236;-73.040;2023-04-06T09:52:11;4.30;;;2.47;;
31526;SDS011;18136;42.236;-73.040;2023-04-06T09:54:38;7.45;;;2.50;;
31526;SDS011;18136;42.236;-73.040;2023-04-06T10:00:04;2.50;;;2.20;;
31526;SDS011;18136;42.236;-73.040;2023-04-06T10:05:31;2.58;;;2.38;;
31526;SDS011;18136;42.236;-73.040;2023-04-06T10:10:43;8.35;;;2.35;;
31526;SDS011;18136;42.236;-73.040;2023-04-06T10:13:11;5.40;;;2.65;;
31526;SDS011;18136;42.236;-73.040;2023-04-06T10:15:40;4.30;;;2.92;;
31526;SDS011;18136;42.236;-73.040;2023-04-06T10:18:08;20.45;;;3.20;;
31526;SDS011;18136;42.236;-73.040;2023-04-06T10:20:39;3.40;;;2.83;;
31526;SDS011;18136;42.236;-73.040;2023-04-06T10:23:26;4.45;;;2.80;;
31526;SDS011;18136;42.236;-73.040;2023-04-06T10:26:01;101.60;;;5.40;;
31526;SDS011;18136;42.236;-73.040;2023-04-06T10:28:31;4.03;;;2.67;;
31526;SDS011;18136;42.236;-73.040;2023-04-06T10:31:00;4.32;;;3.38;;
31526;SDS011;18136;42.236;-73.040;2023-04-06T10:33:27;25.85;;;3.92;;
31526;SDS011;18136;42.236;-73.040;2023-04-06T10:35:54;3.50;;;3.05;;
31526;SDS011;18136;42.236;-73.040;2023-04-06T10:38:36;3.00;;;2.70;;
31526;SDS011;18136;42.236;-73.040;2023-04-06T10:41:04;2.90;;;2.70;;
31526;SDS011;18136;42.236;-73.040;2023-04-06T10:43:34;8.85;;;2.90;;
31526;SDS011;18136;42.236;-73.040;2023-04-06T10:46:03;40.95;;;4.28;;
31526;SDS011;18136;42.236;-73.040;2023-04-06T10:51:13;8.68;;;5.00;;
31526;SDS011;18136;42.236;-73.040;2023-04-06T10:53:41;20.48;;;4.88;;
31526;SDS011;18136;42.236;-73.040;2023-04-06T10:56:15;46.67;;;5.68;;
31526;SDS011;18136;42.236;-73.040;2023-04-06T10:58:45;21.58;;;5.55;;
31526;SDS011;18136;42.236;-73.040;2023-04-06T11:01:16;55.13;;;5.40;;
31526;SDS011;18136;42.236;-73.040;2023-04-06T11:03:46;49.35;;;5.25;;
31526;SDS011;18136;42.236;-73.040;2023-04-06T11:06:21;32.85;;;4.75;;
31526;SDS011;18136;42.236;-73.040;2023-04-06T11:08:49;64.93;;;5.28;;
31526;SDS011;18136;42.236;-73.040;2023-04-06T11:11:18;50.33;;;5.13;;
31526;SDS011;18136;42.236;-73.040;2023-04-06T11:14:03;130.30;;;7.60;;
31526;SDS011;18136;42.236;-73.040;2023-04-06T11:16:30;22.90;;;6.22;;
31526;SDS011;18136;42.236;-73.040;2023-04-06T11:19:01;100.85;;;7.75;;
31526;SDS011;18136;42.236;-73.040;2023-04-06T11:24:04;20.73;;;5.80;;
31526;SDS011;18136;42.236;-73.040;2023-04-06T11:26:36;9.93;;;6.18;;
31526;SDS011;18136;42.236;-73.040;2023-04-06T11:29:03;65.10;;;7.85;;
31526;SDS011;18136;42.236;-73.040;2023-04-06T11:31:30;17.65;;;5.97;;
31526;SDS011;18136;42.236;-73.040;2023-04-06T11:33:56;17.88;;;6.55;;
31526;SDS011;18136;42.236;-73.040;2023-04-06T11:36:23;40.45;;;8.38;;
31526;SDS011;18136;42.236;-73.040;2023-04-06T11:38:52;15.50;;;7.05;;
31526;SDS011;18136;42.236;-73.040;2023-04-06T11:41:18;14.43;;;6.90;;
31526;SDS011;18136;42.236;-73.040;2023-04-06T11:43:48;24.08;;;7.20;;
31526;SDS011;18136;42.236;-73.040;2023-04-06T11:46:17;9.88;;;6.45;;
31526;SDS011;18136;42.236;-73.040;2023-04-06T11:48:46;57.53;;;9.32;;
31526;SDS011;18136;42.236;-73.040;2023-04-06T11:51:12;53.38;;;9.10;;
31526;SDS011;18136;42.236;-73.040;2023-04-06T11:53:48;57.28;;;9.80;;
31526;SDS011;18136;42.236;-73.040;2023-04-06T11:56:24;15.20;;;8.52;;
31526;SDS011;18136;42.236;-73.040;2023-04-06T11:58:55;13.38;;;7.32;;
31526;SDS011;18136;42.236;-73.040;2023-04-06T12:01:23;21.80;;;7.80;;
31526;SDS011;18136;42.236;-73.040;2023-04-06T12:03:50;36.67;;;8.68;;
31526;SDS011;18136;42.236;-73.040;2023-04-06T12:06:17;21.67;;;8.50;;
31526;SDS011;18136;42.236;-73.040;2023-04-06T12:08:44;69.85;;;9.10;;
31526;SDS011;18136;42.236;-73.040;2023-04-06T12:11:10;135.18;;;11.52;;
31526;SDS011;18136;42.236;-73.040;2023-04-06T12:13:37;92.28;;;9.32;;
31526;SDS011;18136;42.236;-73.040;2023-04-06T12:16:04;61.63;;;8.85;;
31526;SDS011;18136;42.236;-73.040;2023-04-06T12:18:30;15.80;;;6.63;;
31526;SDS011;18136;42.236;-73.040;2023-04-06T12:20:56;18.27;;;6.78;;
31526;SDS011;18136;42.236;-73.040;2023-04-06T12:23:23;26.08;;;7.28;;
31526;SDS011;18136;42.236;-73.040;2023-04-06T12:25:50;36.47;;;7.88;;
31526;SDS011;18136;42.236;-73.040;2023-04-06T12:28:16;177.30;;;12.60;;
31526;SDS011;18136;42.236;-73.040;2023-04-06T12:30:43;85.28;;;10.00;;
31526;SDS011;18136;42.236;-73.040;2023-04-06T12:33:09;113.95;;;10.50;;
31526;SDS011;18136;42.236;-73.040;2023-04-06T12:35:36;27.23;;;7.70;;
31526;SDS011;18136;42.236;-73.040;2023-04-06T12:38:02;18.00;;;6.68;;
31526;SDS011;18136;42.236;-73.040;2023-04-06T12:40:28;13.82;;;6.97;;
31526;SDS011;18136;42.236;-73.040;2023-04-06T12:42:54;73.50;;;9.00;;
31526;SDS011;18136;42.236;-73.040;2023-04-06T12:45:21;40.58;;;7.90;;
31526;SDS011;18136;42.236;-73.040;2023-04-06T12:47:47;18.58;;;7.85;;
31526;SDS011;18136;42.236;-73.040;2023-04-06T12:50:13;7.80;;;7.00;;
31526;SDS011;18136;42.236;-73.040;2023-04-06T12:52:39;20.23;;;8.20;;
31526;SDS011;18136;42.236;-73.040;2023-04-06T12:55:05;18.73;;;7.57;;
31526;SDS011;18136;42.236;-73.040;2023-04-06T12:57:32;13.13;;;7.32;;
31526;SDS011;18136;42.236;-73.040;2023-04-06T12:59:58;7.43;;;6.47;;
31526;SDS011;18136;42.236;-73.040;2023-04-06T13:02:25;9.02;;;7.30;;
31526;SDS011;18136;42.236;-73.040;2023-04-06T13:04:52;8.05;;;6.93;;
31526;SDS011;18136;42.236;-73.040;2023-04-06T13:07:18;17.65;;;8.05;;
31526;SDS011;18136;42.236;-73.040;2023-04-06T13:09:44;6.68;;;5.95;;
31526;SDS011;18136;42.236;-73.040;2023-04-06T13:12:12;11.93;;;6.55;;
31526;SDS011;18136;42.236;-73.040;2023-04-06T13:14:38;7.47;;;6.72;;
31526;SDS011;18136;42.236;-73.040;2023-04-06T13:17:05;10.10;;;8.25;;
31526;SDS011;18136;42.236;-73.040;2023-04-06T13:19:32;7.78;;;7.00;;
31526;SDS011;18136;42.236;-73.040;2023-04-06T13:21:58;7.65;;;6.95;;
31526;SDS011;18136;42.236;-73.040;2023-04-06T13:24:24;6.40;;;5.80;;
31526;SDS011;18136;42.236;-73.040;2023-04-06T13:26:50;6.40;;;5.80;;
31526;SDS011;18136;42.236;-73.040;2023-04-06T13:29:16;8.75;;;6.57;;
31526;SDS011;18136;42.236;-73.040;2023-04-06T13:31:43;5.47;;;4.97;;
31526;SDS011;18136;42.236;-73.040;2023-04-06T13:34:09;5.30;;;4.80;;
31526;SDS011;18136;42.236;-73.040;2023-04-06T13:36:35;5.43;;;4.93;;
31526;SDS011;18136;42.236;-73.040;2023-04-06T13:39:02;5.10;;;4.60;;
31526;SDS011;18136;42.236;-73.040;2023-04-06T13:41:28;5.55;;;5.05;;
31526;SDS011;18136;42.236;-73.040;2023-04-06T13:43:54;4.65;;;4.25;;
31526;SDS011;18136;42.236;-73.040;2023-04-06T13:46:21;5.05;;;4.47;;
31526;SDS011;18136;42.236;-73.040;2023-04-06T13:48:49;4.78;;;4.45;;
31526;SDS011;18136;42.236;-73.040;2023-04-06T13:51:16;4.70;;;4.30;;
31526;SDS011;18136;42.236;-73.040;2023-04-06T13:53:42;5.43;;;4.55;;
31526;SDS011;18136;42.236;-73.040;2023-04-06T13:56:08;4.75;;;4.22;;
31526;SDS011;18136;42.236;-73.040;2023-04-06T13:58:34;4.78;;;4.38;;
31526;SDS011;18136;42.236;-73.040;2023-04-06T14:01:07;4.38;;;3.97;;
31526;SDS011;18136;42.236;-73.040;2023-04-06T14:03:35;4.00;;;3.70;;
31526;SDS011;18136;42.236;-73.040;2023-04-06T14:06:01;3.70;;;3.40;;
31526;SDS011;18136;42.236;-73.040;2023-04-06T14:08:38;3.28;;;3.03;;
31526;SDS011;18136;42.236;-73.040;2023-04-06T14:11:04;3.40;;;3.10;;
31526;SDS011;18136;42.236;-73.040;2023-04-06T14:13:33;3.80;;;3.47;;
31526;SDS011;18136;42.236;-73.040;2023-04-06T14:15:59;4.15;;;3.75;;
31526;SDS011;18136;42.236;-73.040;2023-04-06T14:18:26;4.60;;;4.05;;
31526;SDS011;18136;42.236;-73.040;2023-04-06T14:20:56;4.32;;;3.88;;
31526;SDS011;18136;42.236;-73.040;2023-04-06T14:23:28;4.50;;;4.10;;
31526;SDS011;18136;42.236;-73.040;2023-04-06T14:26:02;4.47;;;3.70;;
31526;SDS011;18136;42.236;-73.040;2023-04-06T14:28:29;4.88;;;4.38;;
31526;SDS011;18136;42.236;-73.040;2023-04-06T14:30:56;3.40;;;3.10;;
31526;SDS011;18136;42.236;-73.040;2023-04-06T14:33:23;3.45;;;2.70;;
31526;SDS011;18136;42.236;-73.040;2023-04-06T14:35:49;3.28;;;2.97;;
31526;SDS011;18136;42.236;-73.040;2023-04-06T14:38:15;2.97;;;2.42;;
31526;SDS011;18136;42.236;-73.040;2023-04-06T14:40:42;2.85;;;2.60;;